Oilton, Texas
Current Conditions -  °F | °C
As of 10:35 PM on Saturday 25 Oct 2014 (Local Time) from KHBV Reporting Station
Clear Clear  
Wind Chill: 69°   Ceiling: Unl
Heat Index: 69°   Visibility: 10mi
Dew Point: 60°   Wind: 5mph
Humidity: 74%   Direction: 130°SE
Pressure: 30.13"   Gusts: NA
Location:  27.47°N, 98.97°W
Report Text: KHBV 260335Z AUTO 13004KT 10SM CLR 21/16 A3013 RMK AO2 T02050157
Loading
Personal Weather Stations






























Interactive Weather Map
Tropical Storm Tracking
New forecast layout! Learn more

10-Day Weather Forecast

Advertisements
Track Severe Weather on mobile